createdAt,value
2023-05-12T00:00:08.279Z,13.57
2023-05-12T00:02:38.321Z,13.57
2023-05-12T00:05:07.644Z,13.58
2023-05-12T00:07:36.574Z,13.57
2023-05-12T00:10:05.670Z,13.46
2023-05-12T00:12:34.291Z,13.48
2023-05-12T00:15:02.951Z,13.38
2023-05-12T00:17:31.524Z,13.40
2023-05-12T00:20:01.653Z,13.19
2023-05-12T00:22:30.073Z,13.20
2023-05-12T00:24:58.667Z,13.22
2023-05-12T00:27:27.224Z,13.24
2023-05-12T00:29:55.714Z,13.18
2023-05-12T00:32:24.208Z,13.12
2023-05-12T00:34:54.550Z,13.09
2023-05-12T00:37:24.586Z,13.12
2023-05-12T00:39:53.073Z,13.10
2023-05-12T00:42:21.598Z,13.10
2023-05-12T00:44:50.191Z,13.06
2023-05-12T00:47:20.388Z,13.02
2023-05-12T00:49:48.959Z,12.97
2023-05-12T00:52:17.423Z,12.96
2023-05-12T00:54:48.045Z,12.97
2023-05-12T00:57:16.572Z,12.92
2023-05-12T00:59:45.052Z,12.85
2023-05-12T01:02:13.632Z,12.85
2023-05-12T01:04:42.176Z,12.84
2023-05-12T01:07:18.182Z,12.78
2023-05-12T01:09:48.053Z,12.75
2023-05-12T01:12:16.762Z,12.70
2023-05-12T01:14:45.288Z,12.70
2023-05-12T01:17:15.526Z,12.69
2023-05-12T01:19:47.751Z,12.60
2023-05-12T01:22:17.760Z,12.59
2023-05-12T01:24:55.447Z,12.61
2023-05-12T01:27:27.673Z,12.52
2023-05-12T01:29:59.395Z,12.57
2023-05-12T01:32:28.014Z,12.50
2023-05-12T01:34:56.588Z,12.34
2023-05-12T01:37:27.094Z,12.29
2023-05-12T01:39:55.823Z,12.30
2023-05-12T01:42:25.961Z,12.35
2023-05-12T01:44:54.465Z,12.27
2023-05-12T01:47:23.038Z,12.23
2023-05-12T01:49:51.615Z,12.16
2023-05-12T01:52:20.694Z,12.18
2023-05-12T01:54:49.304Z,12.16
2023-05-12T01:57:17.794Z,12.19
2023-05-12T01:59:47.691Z,12.27
2023-05-12T02:02:16.367Z,12.25
2023-05-12T02:04:44.991Z,12.26
2023-05-12T02:07:13.430Z,12.27
2023-05-12T02:09:42.039Z,12.26
2023-05-12T02:12:11.118Z,12.22
2023-05-12T02:14:39.708Z,12.23
2023-05-12T02:17:09.829Z,12.26
2023-05-12T02:19:38.338Z,12.26
2023-05-12T02:22:06.960Z,12.24
2023-05-12T02:24:35.532Z,12.24
2023-05-12T02:27:04.012Z,12.24
2023-05-12T02:29:32.605Z,12.20
2023-05-12T02:32:05.987Z,12.18
2023-05-12T02:34:43.042Z,12.16
2023-05-12T02:37:11.803Z,12.14
2023-05-12T02:39:40.450Z,12.10
2023-05-12T02:42:09.464Z,12.08
2023-05-12T02:44:37.983Z,12.07
2023-05-12T02:47:07.103Z,12.05
2023-05-12T02:49:37.595Z,12.03
2023-05-12T02:52:07.028Z,12.01
2023-05-12T02:54:35.596Z,12.01
2023-05-12T02:57:07.074Z,11.89
2023-05-12T02:59:36.507Z,11.95
2023-05-12T03:02:05.829Z,11.89
2023-05-12T03:04:34.550Z,11.87
2023-05-12T03:07:04.786Z,11.84
2023-05-12T03:09:33.501Z,11.80
2023-05-12T03:12:02.168Z,11.77
2023-05-12T03:14:30.749Z,11.74
2023-05-12T03:16:59.425Z,11.73
2023-05-12T03:19:28.120Z,11.70
2023-05-12T03:21:56.975Z,11.69
2023-05-12T03:24:26.963Z,11.63
2023-05-12T03:26:55.464Z,11.63
2023-05-12T03:29:24.850Z,11.59
2023-05-12T03:31:53.446Z,11.58
2023-05-12T03:34:22.113Z,11.57
2023-05-12T03:36:50.800Z,11.55
2023-05-12T03:39:19.411Z,11.49
2023-05-12T03:41:49.528Z,11.48
2023-05-12T03:44:19.041Z,11.49
2023-05-12T03:46:47.882Z,11.49
2023-05-12T03:49:16.713Z,11.45
2023-05-12T03:51:45.311Z,11.44
2023-05-12T03:54:14.018Z,11.46
2023-05-12T03:56:42.593Z,11.45
2023-05-12T03:59:13.138Z,11.43
2023-05-12T04:01:41.976Z,11.45
2023-05-12T04:04:10.992Z,11.45
2023-05-12T04:06:39.721Z,11.45
2023-05-12T04:09:08.300Z,11.45
2023-05-12T04:11:37.317Z,11.45
2023-05-12T04:14:06.299Z,11.47
2023-05-12T04:16:37.073Z,11.49
2023-05-12T04:19:05.835Z,11.48
2023-05-12T04:21:34.521Z,11.52
2023-05-12T04:24:03.096Z,11.53
2023-05-12T04:26:31.580Z,11.57
2023-05-12T04:29:00.189Z,11.59
2023-05-12T04:31:28.932Z,11.59
2023-05-12T04:33:58.893Z,11.59
2023-05-12T04:36:28.714Z,11.59
2023-05-12T04:38:57.512Z,11.59
2023-05-12T04:41:26.401Z,11.61
2023-05-12T04:46:26.574Z,11.62
2023-05-12T04:48:55.369Z,11.67
2023-05-12T04:51:25.540Z,11.66
2023-05-12T04:53:54.056Z,11.70
2023-05-12T04:56:23.259Z,11.73
2023-05-12T04:58:52.023Z,11.76
2023-05-12T05:01:20.577Z,11.80
2023-05-12T05:03:49.893Z,11.84
2023-05-12T05:06:19.166Z,11.87
2023-05-12T05:08:49.067Z,11.93
2023-05-12T05:11:17.558Z,11.94
2023-05-12T05:13:46.047Z,11.95
2023-05-12T05:16:14.942Z,11.98
2023-05-12T05:18:46.916Z,12.02
2023-05-12T05:21:15.731Z,12.10
2023-05-12T05:23:44.301Z,12.14
2023-05-12T05:26:19.706Z,12.19
2023-05-12T05:28:48.180Z,12.27
2023-05-12T05:31:17.983Z,12.33
2023-05-12T05:33:46.485Z,12.41
2023-05-12T05:36:15.188Z,12.49
2023-05-12T05:38:43.909Z,12.55
2023-05-12T05:41:12.410Z,12.65
2023-05-12T05:43:42.316Z,12.78
2023-05-12T05:46:11.063Z,12.85
2023-05-12T05:48:39.554Z,12.96
2023-05-12T05:51:07.993Z,13.09
2023-05-12T05:53:36.660Z,13.10
2023-05-12T05:56:05.674Z,13.28
2023-05-12T05:58:34.315Z,13.28
2023-05-12T06:01:05.903Z,13.36
2023-05-12T06:03:35.640Z,13.44
2023-05-12T06:06:05.404Z,13.43
2023-05-12T06:08:34.099Z,13.55
2023-05-12T06:11:02.506Z,13.61
2023-05-12T06:13:31.060Z,13.75
2023-05-12T06:15:59.507Z,13.82
2023-05-12T06:18:29.656Z,13.83
2023-05-12T06:20:58.397Z,13.93
2023-05-12T06:23:27.088Z,13.99
2023-05-12T06:25:55.588Z,14.07
2023-05-12T06:28:24.045Z,14.21
2023-05-12T06:30:52.864Z,14.26
2023-05-12T06:33:21.732Z,14.39
2023-05-12T06:35:51.962Z,14.45
2023-05-12T06:38:23.056Z,14.51
2023-05-12T06:40:54.303Z,14.64
2023-05-12T06:43:23.665Z,14.66
2023-05-12T06:45:52.165Z,14.76
2023-05-12T06:48:20.974Z,14.81
2023-05-12T06:50:52.290Z,15.03
2023-05-12T06:53:21.793Z,15.03
2023-05-12T06:55:51.438Z,15.25
2023-05-12T06:58:22.198Z,15.38
2023-05-12T07:00:50.971Z,15.57
2023-05-12T07:03:19.466Z,15.81
2023-05-12T07:05:47.974Z,16.04
2023-05-12T07:08:17.955Z,16.13
2023-05-12T07:10:46.597Z,16.23
2023-05-12T07:13:15.118Z,16.32
2023-05-12T07:15:43.631Z,16.41
2023-05-12T07:18:12.526Z,16.46
2023-05-12T07:20:41.156Z,16.64
2023-05-12T07:23:10.348Z,16.74
2023-05-12T07:25:40.988Z,16.76
2023-05-12T07:28:09.608Z,16.81
2023-05-12T07:30:38.896Z,16.87
2023-05-12T07:33:08.837Z,17.10
2023-05-12T07:35:37.253Z,17.23
2023-05-12T07:38:05.708Z,17.34
2023-05-12T07:40:34.234Z,17.48
2023-05-12T07:43:04.324Z,17.68
2023-05-12T07:45:32.784Z,17.93
2023-05-12T07:48:01.321Z,17.93
2023-05-12T07:50:29.877Z,17.88
2023-05-12T07:52:58.391Z,18.00
2023-05-12T07:55:27.066Z,18.12
2023-05-12T07:57:55.565Z,18.12
2023-05-12T08:00:25.596Z,18.17
2023-05-12T08:02:54.329Z,18.20
2023-05-12T08:05:23.100Z,18.48
2023-05-12T08:07:52.099Z,18.51
2023-05-12T08:10:20.931Z,18.68
2023-05-12T08:12:49.467Z,18.68
2023-05-12T08:15:18.099Z,18.79
2023-05-12T08:17:48.549Z,18.83
2023-05-12T08:20:17.374Z,18.92
2023-05-12T08:22:48.083Z,19.14
2023-05-12T08:25:16.447Z,19.05
2023-05-12T08:27:45.848Z,19.14
2023-05-12T08:30:15.278Z,19.22
2023-05-12T08:32:43.827Z,19.41
2023-05-12T08:35:13.999Z,19.41
2023-05-12T08:37:45.642Z,19.56
2023-05-12T08:40:25.262Z,19.57
2023-05-12T08:43:04.292Z,19.77
2023-05-12T08:45:34.303Z,19.93
2023-05-12T08:48:04.472Z,19.87
2023-05-12T08:50:37.442Z,19.98
2023-05-12T08:53:06.820Z,20.16
2023-05-12T08:55:36.737Z,20.28
2023-05-12T08:58:05.432Z,20.38
2023-05-12T09:00:36.522Z,20.33
2023-05-12T09:03:07.704Z,20.45
2023-05-12T09:05:39.736Z,20.65
2023-05-12T09:08:11.155Z,20.64
2023-05-12T09:10:44.082Z,20.81
2023-05-12T09:13:17.749Z,20.91
2023-05-12T09:15:49.505Z,20.97
2023-05-12T09:18:18.004Z,20.97
2023-05-12T09:20:47.861Z,21.21
2023-05-12T09:23:18.893Z,21.32
2023-05-12T09:25:48.471Z,21.49
2023-05-12T09:28:17.779Z,21.58
2023-05-12T09:30:47.039Z,21.73
2023-05-12T09:33:17.003Z,21.92
2023-05-12T09:35:47.978Z,21.93
2023-05-12T09:38:16.597Z,21.90
2023-05-12T09:40:46.033Z,22.05
2023-05-12T09:43:22.232Z,22.17
2023-05-12T09:45:52.872Z,22.11
2023-05-12T09:48:24.424Z,22.10
2023-05-12T09:50:55.343Z,22.17
2023-05-12T09:53:24.222Z,22.16
2023-05-12T09:55:53.204Z,22.22
2023-05-12T09:58:23.785Z,22.27
2023-05-12T10:03:29.570Z,22.38
2023-05-12T10:06:02.212Z,22.60
2023-05-12T10:08:35.618Z,22.57
2023-05-12T10:11:06.292Z,22.77
2023-05-12T10:13:35.442Z,22.87
2023-05-12T10:16:04.654Z,23.04
2023-05-12T10:18:34.890Z,23.18
2023-05-12T10:21:05.005Z,22.98
2023-05-12T10:23:37.697Z,22.88
2023-05-12T10:26:08.117Z,23.00
2023-05-12T10:28:36.519Z,23.21
2023-05-12T10:31:07.223Z,23.40
2023-05-12T10:33:36.163Z,23.58
2023-05-12T10:36:09.566Z,23.72
2023-05-12T10:38:39.785Z,23.72
2023-05-12T10:41:13.203Z,23.63
2023-05-12T10:43:47.081Z,23.86
2023-05-12T10:46:23.149Z,23.49
2023-05-12T10:48:57.697Z,23.62
2023-05-12T10:51:30.140Z,23.77
2023-05-12T10:54:10.282Z,23.88
2023-05-12T10:56:45.814Z,23.94
2023-05-12T10:59:19.555Z,23.97
2023-05-12T11:02:05.387Z,23.94
2023-05-12T11:04:41.541Z,24.06
2023-05-12T11:07:14.279Z,24.04
2023-05-12T11:09:56.855Z,24.19
2023-05-12T11:12:28.185Z,24.23
2023-05-12T11:14:57.137Z,23.95
2023-05-12T11:17:25.757Z,24.33
2023-05-12T11:19:56.374Z,24.08
2023-05-12T11:22:32.402Z,23.96
2023-05-12T11:25:11.755Z,24.30
2023-05-12T11:27:45.697Z,24.39
2023-05-12T11:30:17.843Z,24.14
2023-05-12T11:32:49.219Z,24.11
2023-05-12T11:35:20.020Z,23.98
2023-05-12T11:37:50.639Z,23.99
2023-05-12T11:40:21.178Z,23.71
2023-05-12T11:42:53.204Z,23.47
2023-05-12T11:45:27.154Z,23.56
2023-05-12T11:48:06.524Z,23.72
2023-05-12T11:50:35.129Z,23.73
2023-05-12T11:53:04.973Z,23.67
2023-05-12T11:55:34.377Z,23.52
2023-05-12T11:58:05.787Z,23.44
2023-05-12T12:00:35.786Z,23.36
2023-05-12T12:03:22.473Z,23.33
2023-05-12T12:06:00.324Z,22.97
2023-05-12T12:08:30.424Z,22.92
2023-05-12T12:11:01.368Z,22.86
2023-05-12T12:13:31.507Z,22.94
2023-05-12T12:16:00.120Z,23.17
2023-05-12T12:18:28.653Z,23.34
2023-05-12T12:20:57.159Z,23.27
2023-05-12T12:23:25.679Z,23.24
2023-05-12T12:25:55.713Z,23.24
2023-05-12T12:28:24.266Z,22.89
2023-05-12T12:30:53.110Z,22.92
2023-05-12T12:33:21.774Z,22.79
2023-05-12T12:35:50.437Z,22.79
2023-05-12T12:38:20.060Z,22.87
2023-05-12T12:40:48.848Z,22.61
2023-05-12T12:43:22.151Z,22.68
2023-05-12T12:45:51.420Z,22.75
2023-05-12T12:48:20.235Z,22.64
2023-05-12T12:50:48.737Z,22.59
2023-05-12T12:53:19.884Z,22.43
2023-05-12T12:55:48.595Z,22.29
2023-05-12T12:58:21.489Z,22.13
2023-05-12T13:00:50.670Z,22.13
2023-05-12T13:03:20.477Z,22.17
2023-05-12T13:05:49.622Z,22.32
2023-05-12T13:08:18.481Z,22.22
2023-05-12T13:10:47.269Z,22.24
2023-05-12T13:13:21.178Z,22.20
2023-05-12T13:15:51.821Z,22.16
2023-05-12T13:18:20.891Z,22.06
2023-05-12T13:20:49.680Z,22.03
2023-05-12T13:23:18.610Z,21.94
2023-05-12T13:25:49.771Z,22.04
2023-05-12T13:28:24.269Z,22.09
2023-05-12T13:30:54.114Z,22.17
2023-05-12T13:33:23.726Z,22.29
2023-05-12T13:35:52.723Z,22.20
2023-05-12T13:38:22.622Z,22.05
2023-05-12T13:40:51.316Z,22.02
2023-05-12T13:43:22.266Z,22.03
2023-05-12T13:45:51.249Z,22.01
2023-05-12T13:48:19.973Z,21.91
2023-05-12T13:50:49.131Z,21.83
2023-05-12T13:53:18.243Z,21.94
2023-05-12T13:55:47.168Z,21.99
2023-05-12T13:58:18.631Z,21.86
2023-05-12T14:00:49.649Z,21.84
2023-05-12T14:03:18.377Z,21.86
2023-05-12T14:05:46.761Z,21.84
2023-05-12T14:08:15.489Z,21.85
2023-05-12T14:10:45.322Z,21.79
2023-05-12T14:13:14.111Z,21.74
2023-05-12T14:15:49.406Z,21.72
2023-05-12T14:18:20.597Z,21.78
2023-05-12T14:20:49.512Z,21.74
2023-05-12T14:23:18.104Z,21.65
2023-05-12T14:25:46.710Z,21.70
2023-05-12T14:28:15.292Z,21.73
2023-05-12T14:30:45.631Z,21.72
2023-05-12T14:33:14.300Z,21.73
2023-05-12T14:35:52.889Z,21.62
2023-05-12T14:38:28.869Z,21.69
2023-05-12T14:40:57.696Z,21.62
2023-05-12T14:43:26.351Z,21.57
2023-05-12T14:45:55.708Z,21.64
2023-05-12T14:48:26.298Z,21.63
2023-05-12T14:50:56.510Z,21.66
2023-05-12T14:53:25.825Z,21.68
2023-05-12T14:55:54.309Z,21.73
2023-05-12T14:58:24.521Z,21.71
2023-05-12T15:00:53.767Z,21.65
2023-05-12T15:03:22.693Z,21.65
2023-05-12T15:08:24.812Z,21.63
2023-05-12T15:10:53.300Z,21.64
2023-05-12T15:13:22.909Z,21.53
2023-05-12T15:15:55.201Z,21.55
2023-05-12T15:18:25.602Z,21.56
2023-05-12T15:20:54.325Z,21.59
2023-05-12T15:23:24.536Z,21.54
2023-05-12T15:25:53.020Z,21.58
2023-05-12T15:28:21.710Z,21.64
2023-05-12T15:30:56.873Z,21.57
2023-05-12T15:33:26.488Z,21.55
2023-05-12T15:35:55.362Z,21.58
2023-05-12T15:38:25.620Z,21.60
2023-05-12T15:40:54.181Z,21.64
2023-05-12T15:43:22.693Z,21.70
2023-05-12T15:45:51.153Z,21.72
2023-05-12T15:48:19.630Z,21.66
2023-05-12T15:50:48.219Z,21.77
2023-05-12T15:53:17.335Z,21.84
2023-05-12T15:55:47.385Z,22.00
2023-05-12T15:58:16.085Z,22.09
2023-05-12T16:00:44.858Z,22.07
2023-05-12T16:03:13.626Z,21.98
2023-05-12T16:05:42.369Z,21.81
2023-05-12T16:08:11.012Z,21.78
2023-05-12T16:10:40.105Z,21.76
2023-05-12T16:13:10.577Z,21.79
2023-05-12T16:15:39.121Z,21.57
2023-05-12T16:18:10.956Z,21.44
2023-05-12T16:20:41.932Z,21.43
2023-05-12T16:23:11.050Z,21.42
2023-05-12T16:25:41.175Z,21.40
2023-05-12T16:28:11.378Z,21.47
2023-05-12T16:30:40.090Z,21.35
2023-05-12T16:33:09.035Z,21.44
2023-05-12T16:35:40.316Z,21.41
2023-05-12T16:38:09.020Z,21.56
2023-05-12T16:40:37.604Z,21.54
2023-05-12T16:43:06.403Z,21.57
2023-05-12T16:45:37.135Z,21.53
2023-05-12T16:48:06.656Z,21.58
2023-05-12T16:50:35.963Z,21.58
2023-05-12T16:53:04.622Z,21.64
2023-05-12T16:55:33.656Z,21.44
2023-05-12T16:58:02.332Z,21.34
2023-05-12T17:00:31.733Z,21.30
2023-05-12T17:03:04.426Z,21.19
2023-05-12T17:05:33.525Z,21.25
2023-05-12T17:08:02.042Z,21.16
2023-05-12T17:10:30.618Z,21.28
2023-05-12T17:12:59.502Z,21.15
2023-05-12T17:15:28.121Z,21.01
2023-05-12T17:17:56.962Z,20.99
2023-05-12T17:20:27.294Z,21.01
2023-05-12T17:22:55.696Z,20.98
2023-05-12T17:25:24.397Z,21.01
2023-05-12T17:27:52.966Z,20.95
2023-05-12T17:30:21.816Z,20.88
2023-05-12T17:32:50.760Z,20.90
2023-05-12T17:35:19.369Z,20.89
2023-05-12T17:37:56.232Z,21.00
2023-05-12T17:40:25.027Z,20.97
2023-05-12T17:42:53.400Z,20.80
2023-05-12T17:45:22.162Z,20.86
2023-05-12T17:47:51.425Z,20.85
2023-05-12T17:50:20.023Z,20.74
2023-05-12T17:52:49.913Z,20.72
2023-05-12T17:55:18.916Z,20.56
2023-05-12T17:57:49.514Z,20.41
2023-05-12T18:00:18.635Z,20.30
2023-05-12T18:02:47.322Z,20.29
2023-05-12T18:05:16.071Z,20.29
2023-05-12T18:07:44.594Z,20.30
2023-05-12T18:10:14.681Z,20.22
2023-05-12T18:12:43.215Z,20.06
2023-05-12T18:15:12.656Z,19.99
2023-05-12T18:17:41.603Z,19.91
2023-05-12T18:20:13.254Z,19.91
2023-05-12T18:22:41.798Z,19.88
2023-05-12T18:25:13.098Z,19.75
2023-05-12T18:27:49.078Z,19.60
2023-05-12T18:30:24.612Z,19.37
2023-05-12T18:33:01.511Z,19.35
2023-05-12T18:35:37.625Z,19.12
2023-05-12T18:38:13.857Z,19.10
2023-05-12T18:40:43.003Z,19.24
2023-05-12T18:43:13.050Z,19.24
2023-05-12T18:45:41.750Z,19.15
2023-05-12T18:48:15.125Z,19.10
2023-05-12T18:50:49.638Z,19.04
2023-05-12T18:53:23.700Z,18.97
2023-05-12T18:55:52.808Z,18.90
2023-05-12T18:58:23.469Z,18.73
2023-05-12T19:00:52.567Z,18.53
2023-05-12T19:03:21.933Z,18.44
2023-05-12T19:05:50.868Z,18.44
2023-05-12T19:08:20.211Z,18.32
2023-05-12T19:10:49.672Z,18.23
2023-05-12T19:13:18.171Z,18.18
2023-05-12T19:15:48.111Z,18.17
2023-05-12T19:18:17.390Z,18.10
2023-05-12T19:20:45.861Z,18.08
2023-05-12T19:23:14.401Z,18.06
2023-05-12T19:25:43.610Z,17.98
2023-05-12T19:28:12.156Z,17.90
2023-05-12T19:30:40.641Z,17.80
2023-05-12T19:33:10.600Z,17.85
2023-05-12T19:35:39.243Z,17.79
2023-05-12T19:38:07.639Z,17.63
2023-05-12T19:40:36.105Z,17.66
2023-05-12T19:43:05.368Z,17.64
2023-05-12T19:45:34.560Z,17.63
2023-05-12T19:48:03.254Z,17.44
2023-05-12T19:50:33.328Z,17.43
2023-05-12T19:53:01.727Z,17.42
2023-05-12T19:55:30.376Z,17.40
2023-05-12T19:57:59.049Z,17.33
2023-05-12T20:00:27.554Z,17.27
2023-05-12T20:02:56.192Z,17.15
2023-05-12T20:05:24.911Z,17.01
2023-05-12T20:07:54.763Z,17.00
2023-05-12T20:10:23.221Z,17.00
2023-05-12T20:12:52.409Z,17.12
2023-05-12T20:15:21.231Z,17.15
2023-05-12T20:17:50.167Z,17.18
2023-05-12T20:20:19.178Z,17.22
2023-05-12T20:22:47.596Z,17.27
2023-05-12T20:25:18.303Z,17.27
2023-05-12T20:27:47.077Z,17.21
2023-05-12T20:30:16.340Z,17.11
2023-05-12T20:32:45.054Z,17.01
2023-05-12T20:35:13.752Z,16.95
2023-05-12T20:37:42.196Z,16.84
2023-05-12T20:40:11.603Z,16.75
2023-05-12T20:42:41.866Z,16.78
2023-05-12T20:45:11.514Z,16.75
2023-05-12T20:47:40.005Z,16.71
2023-05-12T20:50:09.463Z,16.71
2023-05-12T20:52:38.857Z,16.71
2023-05-12T20:55:08.774Z,16.62
2023-05-12T20:57:38.057Z,16.54
2023-05-12T21:00:10.915Z,16.53
2023-05-12T21:02:39.642Z,16.51
2023-05-12T21:05:08.576Z,16.40
2023-05-12T21:07:37.232Z,16.41
2023-05-12T21:10:06.574Z,16.35
2023-05-12T21:12:35.244Z,16.31
2023-05-12T21:15:04.190Z,16.28
2023-05-12T21:17:34.105Z,16.22
2023-05-12T21:20:02.622Z,16.13
2023-05-12T21:22:31.158Z,16.04
2023-05-12T21:24:59.693Z,15.76
2023-05-12T21:27:28.961Z,15.72
2023-05-12T21:29:58.108Z,15.64
2023-05-12T21:32:26.895Z,15.49
2023-05-12T21:34:57.426Z,15.49
2023-05-12T21:37:25.969Z,15.60
2023-05-12T21:39:54.456Z,15.66
2023-05-12T21:42:22.851Z,15.63
2023-05-12T21:44:51.952Z,15.62
2023-05-12T21:47:20.557Z,15.60
2023-05-12T21:49:49.161Z,15.61
2023-05-12T21:52:19.138Z,15.52
2023-05-12T21:54:48.138Z,15.47
2023-05-12T21:57:16.771Z,15.39
2023-05-12T21:59:45.218Z,15.40
2023-05-12T22:02:14.152Z,15.39
2023-05-12T22:04:42.649Z,15.30
2023-05-12T22:07:11.095Z,15.26
2023-05-12T22:09:41.023Z,15.19
2023-05-12T22:12:13.778Z,15.26
2023-05-12T22:14:42.248Z,15.18
2023-05-12T22:17:10.753Z,15.20
2023-05-12T22:19:39.258Z,15.18
2023-05-12T22:22:07.975Z,15.18
2023-05-12T22:24:36.669Z,15.19
2023-05-12T22:27:07.357Z,15.15
2023-05-12T22:29:35.927Z,15.17
2023-05-12T22:32:04.449Z,15.14
2023-05-12T22:34:32.851Z,15.11
2023-05-12T22:37:01.665Z,15.09
2023-05-12T22:39:30.151Z,15.05
2023-05-12T22:41:58.652Z,14.94
2023-05-12T22:44:28.558Z,14.92
2023-05-12T22:46:57.056Z,14.91
2023-05-12T22:49:25.809Z,14.86
2023-05-12T22:51:54.277Z,14.78
2023-05-12T22:54:22.913Z,14.80
2023-05-12T22:56:51.303Z,14.80
2023-05-12T22:59:19.979Z,14.82
2023-05-12T23:01:50.035Z,14.78
2023-05-12T23:04:18.651Z,14.76
2023-05-12T23:06:47.444Z,14.81
2023-05-12T23:09:16.377Z,14.77
2023-05-12T23:11:44.858Z,14.73
2023-05-12T23:14:13.441Z,14.64
2023-05-12T23:16:41.954Z,14.60
2023-05-12T23:19:11.966Z,14.52
2023-05-12T23:21:40.684Z,14.45
2023-05-12T23:24:09.786Z,14.35
2023-05-12T23:26:38.217Z,14.32
2023-05-12T23:29:06.750Z,14.26
2023-05-12T23:31:35.329Z,14.24
2023-05-12T23:34:03.836Z,14.18
2023-05-12T23:36:34.321Z,14.06
2023-05-12T23:39:03.093Z,14.06
2023-05-12T23:41:33.397Z,14.07
2023-05-12T23:44:02.486Z,14.03
2023-05-12T23:46:30.985Z,14.03
2023-05-12T23:48:59.972Z,14.01
2023-05-12T23:51:28.728Z,13.97
2023-05-12T23:53:58.678Z,13.97
2023-05-12T23:56:27.126Z,13.87
2023-05-12T23:58:55.612Z,13.88
